createdAt,value
2018-12-22T00:00:16.759Z,55.00
2018-12-22T00:00:50.610Z,56.00
2018-12-22T00:01:24.477Z,55.80
2018-12-22T00:01:58.596Z,56.50
2018-12-22T00:02:32.219Z,55.30
2018-12-22T00:03:06.086Z,55.70
2018-12-22T00:03:40.174Z,56.40
2018-12-22T00:04:13.897Z,55.00
2018-12-22T00:04:47.860Z,56.20
2018-12-22T00:05:21.755Z,55.70
2018-12-22T00:05:55.359Z,55.70
2018-12-22T00:06:29.269Z,56.10
2018-12-22T00:07:03.046Z,55.40
2018-12-22T00:07:37.053Z,54.90
2018-12-22T00:08:10.834Z,55.30
2018-12-22T00:08:44.659Z,56.50
2018-12-22T00:09:18.992Z,56.40
2018-12-22T00:09:53.147Z,56.30
2018-12-22T00:10:27.312Z,56.90
2018-12-22T00:11:01.657Z,56.00
2018-12-22T00:11:35.725Z,56.10
2018-12-22T00:12:09.795Z,55.20
2018-12-22T00:12:43.801Z,55.60
2018-12-22T00:13:17.534Z,55.30
2018-12-22T00:13:51.372Z,55.60
2018-12-22T00:14:25.321Z,55.70
2018-12-22T00:14:59.440Z,55.50
2018-12-22T00:15:33.549Z,54.90
2018-12-22T00:16:07.418Z,55.50
2018-12-22T00:16:41.628Z,55.50
2018-12-22T00:17:15.484Z,55.60
2018-12-22T00:17:49.202Z,54.50
2018-12-22T00:18:23.128Z,56.70
2018-12-22T00:18:57.118Z,56.00
2018-12-22T00:19:31.019Z,56.60
2018-12-22T00:20:05.113Z,55.60
2018-12-22T00:20:39.089Z,56.00
2018-12-22T00:21:13.389Z,55.80
2018-12-22T00:21:47.339Z,54.90
2018-12-22T00:22:21.306Z,55.30
2018-12-22T00:22:55.364Z,55.10
2018-12-22T00:23:29.009Z,55.30
2018-12-22T00:24:03.090Z,55.00
2018-12-22T00:24:36.703Z,54.60
2018-12-22T00:25:10.750Z,54.80
2018-12-22T00:25:44.675Z,56.30
2018-12-22T00:26:18.626Z,56.90
2018-12-22T00:26:52.753Z,56.30
2018-12-22T00:27:26.693Z,56.60
2018-12-22T00:28:00.705Z,55.90
2018-12-22T00:28:34.565Z,55.30
2018-12-22T00:29:08.436Z,56.90
2018-12-22T00:29:42.659Z,56.60
2018-12-22T00:30:16.693Z,56.50
2018-12-22T00:30:50.819Z,55.20
2018-12-22T00:31:24.718Z,55.00
2018-12-22T00:31:58.831Z,55.40
2018-12-22T00:32:32.805Z,54.80
2018-12-22T00:33:06.912Z,55.00
2018-12-22T00:33:40.603Z,55.90
2018-12-22T00:34:14.335Z,54.80
2018-12-22T00:34:48.163Z,55.80
2018-12-22T00:35:22.137Z,55.80
2018-12-22T00:35:55.891Z,55.00
2018-12-22T00:36:29.770Z,55.70
2018-12-22T00:37:03.808Z,55.20
2018-12-22T00:37:37.695Z,55.60
2018-12-22T00:38:11.829Z,56.00
2018-12-22T00:38:45.718Z,55.50
2018-12-22T00:39:19.784Z,55.20
2018-12-22T00:39:53.613Z,55.00
2018-12-22T00:40:27.463Z,55.00
2018-12-22T00:41:01.440Z,55.10
2018-12-22T00:41:35.464Z,55.20
2018-12-22T00:42:09.865Z,56.80
2018-12-22T00:42:43.843Z,55.90
2018-12-22T00:43:17.840Z,56.40
2018-12-22T00:43:52.168Z,55.70
2018-12-22T00:44:26.144Z,55.60
2018-12-22T00:45:00.148Z,56.00
2018-12-22T00:45:34.308Z,56.00
2018-12-22T00:46:08.270Z,55.10
2018-12-22T00:46:42.377Z,56.00
2018-12-22T00:47:15.999Z,55.70
2018-12-22T00:47:49.747Z,55.90
2018-12-22T00:48:23.629Z,55.70
2018-12-22T00:48:57.577Z,56.00
2018-12-22T00:49:31.578Z,56.20
2018-12-22T00:50:05.528Z,55.50
2018-12-22T00:50:39.240Z,57.00
2018-12-22T00:51:13.349Z,56.30
2018-12-22T00:51:47.069Z,56.00
2018-12-22T00:52:20.908Z,57.70
2018-12-22T00:52:54.879Z,57.30
2018-12-22T00:53:28.828Z,57.70
2018-12-22T00:54:02.922Z,56.30
2018-12-22T00:54:37.013Z,55.90
2018-12-22T00:55:11.199Z,56.40
2018-12-22T00:55:45.121Z,55.90
2018-12-22T00:56:19.196Z,55.70
2018-12-22T00:56:52.868Z,56.10
2018-12-22T00:57:26.846Z,56.00
2018-12-22T00:58:00.908Z,56.10
2018-12-22T00:58:34.450Z,55.80
2018-12-22T00:59:07.959Z,56.10
2018-12-22T00:59:42.065Z,56.90
2018-12-22T01:00:16.080Z,57.20
2018-12-22T01:00:49.990Z,56.60
2018-12-22T01:01:24.081Z,57.60
2018-12-22T01:01:58.365Z,56.90
2018-12-22T01:02:32.422Z,56.70
2018-12-22T01:03:06.243Z,56.30
2018-12-22T01:03:40.434Z,57.20
2018-12-22T01:04:14.015Z,56.40
2018-12-22T01:04:48.136Z,56.40
2018-12-22T01:05:22.276Z,57.30
2018-12-22T01:05:56.086Z,56.60
2018-12-22T01:06:29.948Z,56.40
2018-12-22T01:07:03.697Z,56.20
2018-12-22T01:07:37.739Z,56.70
2018-12-22T01:08:11.469Z,57.10
2018-12-22T01:08:45.036Z,57.20
2018-12-22T01:09:18.560Z,57.50
2018-12-22T01:09:52.381Z,57.60
2018-12-22T01:10:26.252Z,57.70
2018-12-22T01:11:00.422Z,57.20
2018-12-22T01:11:34.581Z,57.60
2018-12-22T01:12:08.892Z,57.10
2018-12-22T01:12:43.575Z,56.60
2018-12-22T01:13:17.545Z,56.80
2018-12-22T01:13:51.564Z,56.80
2018-12-22T01:14:25.456Z,56.70
2018-12-22T01:14:59.562Z,56.70
2018-12-22T01:15:33.346Z,57.20
2018-12-22T01:16:07.336Z,57.80
2018-12-22T01:16:41.657Z,57.50
2018-12-22T01:17:15.792Z,57.00
2018-12-22T01:17:49.597Z,56.70
2018-12-22T01:18:23.327Z,57.90
2018-12-22T01:18:57.258Z,56.90
2018-12-22T01:19:31.269Z,56.90
2018-12-22T01:20:05.474Z,56.80
2018-12-22T01:20:39.635Z,56.50
2018-12-22T01:21:13.618Z,57.50
2018-12-22T01:21:47.648Z,56.60
2018-12-22T01:22:21.558Z,58.00
2018-12-22T01:22:55.471Z,56.90
2018-12-22T01:23:29.304Z,57.60
2018-12-22T01:24:03.143Z,58.10
2018-12-22T01:24:36.870Z,57.80
2018-12-22T01:25:11.158Z,58.50
2018-12-22T01:25:45.109Z,57.80
2018-12-22T01:26:19.258Z,57.50
2018-12-22T01:26:53.358Z,57.00
2018-12-22T01:27:27.238Z,57.50
2018-12-22T01:28:01.181Z,58.00
2018-12-22T01:28:39.423Z,57.20
2018-12-22T01:29:10.876Z,56.90
2018-12-22T01:29:44.827Z,57.60
2018-12-22T01:30:18.666Z,58.80
2018-12-22T01:30:52.655Z,57.00
2018-12-22T01:31:26.386Z,57.90
2018-12-22T01:32:00.279Z,58.00
2018-12-22T01:32:34.391Z,58.50
2018-12-22T01:33:08.163Z,58.00
2018-12-22T01:33:42.043Z,57.20
2018-12-22T01:34:15.951Z,57.70
2018-12-22T01:34:49.821Z,58.00
2018-12-22T01:35:23.743Z,57.50
2018-12-22T01:35:57.705Z,57.50
2018-12-22T01:36:31.399Z,56.70
2018-12-22T01:37:05.394Z,56.20
2018-12-22T01:37:39.280Z,57.00
2018-12-22T01:38:13.153Z,57.90
2018-12-22T01:38:46.846Z,57.70
2018-12-22T01:39:20.599Z,57.20
2018-12-22T01:39:54.728Z,57.00
2018-12-22T01:40:28.708Z,57.50
2018-12-22T01:41:02.557Z,57.40
2018-12-22T01:41:36.552Z,56.70
2018-12-22T01:42:10.668Z,57.90
2018-12-22T01:42:44.726Z,57.10
2018-12-22T01:43:18.646Z,58.10
2018-12-22T01:43:52.700Z,56.80
2018-12-22T01:44:26.566Z,57.60
2018-12-22T01:45:00.364Z,58.20
2018-12-22T01:45:34.337Z,57.30
2018-12-22T01:46:08.084Z,56.90
2018-12-22T01:46:41.994Z,58.00
2018-12-22T01:47:16.352Z,56.70
2018-12-22T01:47:50.421Z,57.90
2018-12-22T01:48:24.559Z,57.20
2018-12-22T01:48:58.293Z,58.10
2018-12-22T01:49:31.930Z,58.10
2018-12-22T01:50:06.017Z,57.70
2018-12-22T01:50:39.939Z,58.80
2018-12-22T01:51:13.591Z,59.00
2018-12-22T01:51:47.359Z,58.70
2018-12-22T01:52:21.328Z,57.60
2018-12-22T01:52:55.299Z,56.80
2018-12-22T01:53:28.981Z,56.30
2018-12-22T01:54:02.849Z,57.00
2018-12-22T01:54:36.770Z,58.10
2018-12-22T01:55:10.659Z,57.60
2018-12-22T01:55:44.441Z,58.40
2018-12-22T01:56:18.534Z,56.80
2018-12-22T01:56:52.260Z,57.10
2018-12-22T01:57:26.094Z,57.10
2018-12-22T01:58:00.020Z,56.90
2018-12-22T01:58:33.760Z,57.70
2018-12-22T01:59:07.813Z,57.70
2018-12-22T01:59:41.681Z,56.70
2018-12-22T02:00:15.417Z,57.10
2018-12-22T02:00:49.422Z,57.10
2018-12-22T02:01:23.301Z,57.70
2018-12-22T02:01:57.392Z,57.90
2018-12-22T02:02:31.502Z,57.00
2018-12-22T02:03:05.515Z,57.20
2018-12-22T02:03:39.585Z,56.90
2018-12-22T02:04:13.412Z,57.50
2018-12-22T02:04:47.581Z,57.30
2018-12-22T02:05:21.483Z,56.80
2018-12-22T02:05:55.459Z,57.60
2018-12-22T02:06:29.363Z,57.40
2018-12-22T02:07:03.684Z,57.70
2018-12-22T02:07:37.933Z,58.20
2018-12-22T02:08:12.053Z,57.70
2018-12-22T02:08:45.969Z,57.20
2018-12-22T02:09:19.944Z,56.40
2018-12-22T02:09:53.945Z,56.70
2018-12-22T02:10:27.584Z,56.20
2018-12-22T02:11:01.681Z,57.40
2018-12-22T02:11:35.543Z,56.90
2018-12-22T02:12:09.642Z,57.00
2018-12-22T02:12:43.601Z,56.60
2018-12-22T02:13:17.360Z,56.40
2018-12-22T02:13:51.261Z,56.90
2018-12-22T02:14:25.249Z,57.10
2018-12-22T02:14:58.967Z,57.00
2018-12-22T02:15:32.728Z,57.60
2018-12-22T02:16:06.574Z,57.30
2018-12-22T02:16:40.696Z,57.20
2018-12-22T02:17:14.685Z,57.70
2018-12-22T02:17:48.266Z,57.20
2018-12-22T02:18:22.343Z,57.30
2018-12-22T02:18:56.533Z,57.00
2018-12-22T02:19:30.354Z,57.90
2018-12-22T02:20:04.163Z,57.60
2018-12-22T02:20:38.333Z,57.80
2018-12-22T02:21:12.041Z,56.60
2018-12-22T02:21:45.899Z,57.70
2018-12-22T02:22:19.849Z,57.70
2018-12-22T02:22:53.908Z,56.80
2018-12-22T02:23:27.924Z,56.60
2018-12-22T02:24:01.807Z,57.60
2018-12-22T02:24:36.391Z,57.50
2018-12-22T02:25:10.357Z,57.00
2018-12-22T02:25:44.337Z,57.30
2018-12-22T02:26:18.605Z,57.50
2018-12-22T02:26:52.244Z,57.40
2018-12-22T02:27:26.195Z,57.10
2018-12-22T02:28:00.242Z,56.70
2018-12-22T02:28:33.869Z,58.90
2018-12-22T02:29:07.727Z,59.10
2018-12-22T02:29:41.513Z,57.40
2018-12-22T02:30:15.293Z,56.90
2018-12-22T02:30:49.385Z,57.30
2018-12-22T02:31:23.251Z,57.80
2018-12-22T02:31:57.404Z,57.40
2018-12-22T02:32:31.199Z,56.80
2018-12-22T02:33:04.781Z,57.40
2018-12-22T02:33:38.875Z,57.30
2018-12-22T02:34:12.674Z,56.80
2018-12-22T02:34:46.753Z,57.20
2018-12-22T02:35:20.802Z,56.70
2018-12-22T02:35:54.765Z,57.80
2018-12-22T02:36:28.883Z,57.00
2018-12-22T02:37:02.995Z,57.70
2018-12-22T02:37:36.791Z,57.20
2018-12-22T02:38:11.027Z,56.80
2018-12-22T02:38:45.069Z,58.10
2018-12-22T02:39:19.202Z,57.20
2018-12-22T02:39:53.146Z,57.20
2018-12-22T02:40:28.007Z,57.80
2018-12-22T02:41:02.009Z,57.70
2018-12-22T02:41:35.919Z,58.60
2018-12-22T02:42:09.943Z,58.20
2018-12-22T02:42:43.816Z,58.50
2018-12-22T02:43:17.658Z,57.50
2018-12-22T02:43:51.610Z,57.50
2018-12-22T02:44:25.747Z,57.20
2018-12-22T02:44:59.638Z,56.70
2018-12-22T02:45:33.531Z,57.20
2018-12-22T02:46:06.952Z,56.80
2018-12-22T02:46:41.190Z,56.70
2018-12-22T02:47:15.372Z,57.10
2018-12-22T02:47:49.343Z,58.30
2018-12-22T02:48:23.049Z,58.00
2018-12-22T02:48:57.070Z,58.30
2018-12-22T02:49:31.040Z,58.80
2018-12-22T02:50:05.191Z,58.10
2018-12-22T02:50:39.219Z,57.70
2018-12-22T02:51:12.941Z,57.20
2018-12-22T02:51:46.935Z,57.40
2018-12-22T02:52:20.858Z,56.80
2018-12-22T02:52:54.799Z,57.50
2018-12-22T02:53:29.001Z,58.00
2018-12-22T02:54:02.904Z,57.50
2018-12-22T02:54:36.941Z,59.20
2018-12-22T02:55:11.102Z,57.50
2018-12-22T02:55:45.002Z,57.10
2018-12-22T02:56:18.812Z,57.50
2018-12-22T02:56:52.533Z,57.00
2018-12-22T02:57:26.352Z,57.20
2018-12-22T02:58:00.461Z,57.60
2018-12-22T02:58:34.512Z,57.30
2018-12-22T02:59:08.385Z,57.40
2018-12-22T02:59:42.096Z,57.50
2018-12-22T03:00:15.926Z,57.00
2018-12-22T03:00:49.793Z,58.10
2018-12-22T03:01:24.052Z,57.10
2018-12-22T03:01:57.892Z,56.80
2018-12-22T03:02:31.525Z,57.20
2018-12-22T03:03:06.104Z,57.50
2018-12-22T03:03:39.785Z,56.80
2018-12-22T03:04:13.526Z,57.50
2018-12-22T03:04:47.346Z,57.60
2018-12-22T03:05:21.476Z,58.20
2018-12-22T03:05:55.078Z,58.50
2018-12-22T03:06:28.599Z,57.80
2018-12-22T03:07:02.396Z,58.10
2018-12-22T03:07:36.506Z,57.70
2018-12-22T03:08:10.437Z,57.90
2018-12-22T03:08:44.137Z,57.60
2018-12-22T03:09:18.087Z,57.40
2018-12-22T03:09:51.984Z,57.50
2018-12-22T03:10:25.940Z,57.80
2018-12-22T03:10:59.920Z,56.70
2018-12-22T03:11:33.847Z,56.70
2018-12-22T03:12:07.422Z,57.10
2018-12-22T03:12:41.349Z,56.90
2018-12-22T03:13:15.542Z,56.60
2018-12-22T03:13:49.629Z,57.70
2018-12-22T03:14:23.568Z,57.80
2018-12-22T03:14:57.589Z,57.40
2018-12-22T03:15:31.243Z,57.00
2018-12-22T03:16:05.151Z,56.90
2018-12-22T03:16:39.159Z,57.10
2018-12-22T03:17:13.039Z,57.10
2018-12-22T03:17:46.952Z,57.90
2018-12-22T03:18:20.750Z,58.00
2018-12-22T03:18:54.600Z,56.90
2018-12-22T03:19:28.612Z,57.20
2018-12-22T03:20:02.711Z,57.50
2018-12-22T03:20:36.755Z,58.40
2018-12-22T03:21:10.731Z,58.00
2018-12-22T03:21:44.683Z,57.40
2018-12-22T03:22:18.581Z,56.90
2018-12-22T03:22:52.212Z,57.20
2018-12-22T03:23:25.952Z,57.60
2018-12-22T03:23:59.993Z,57.50
2018-12-22T03:24:33.797Z,57.40
2018-12-22T03:25:07.737Z,57.10
2018-12-22T03:25:41.582Z,57.50
2018-12-22T03:26:15.634Z,57.10
2018-12-22T03:26:49.568Z,57.20
2018-12-22T03:27:23.305Z,57.60
2018-12-22T03:27:57.326Z,58.70
2018-12-22T03:28:31.325Z,57.40
2018-12-22T03:29:05.174Z,57.00
2018-12-22T03:29:39.124Z,57.60
2018-12-22T03:30:13.276Z,57.00
2018-12-22T03:30:47.370Z,57.00
2018-12-22T03:31:21.105Z,57.80
2018-12-22T03:31:54.628Z,57.80
2018-12-22T03:32:28.566Z,57.60
2018-12-22T03:33:02.761Z,57.20
2018-12-22T03:33:36.695Z,57.40
2018-12-22T03:34:10.716Z,57.40
2018-12-22T03:34:44.712Z,58.10
2018-12-22T03:35:18.769Z,57.30
2018-12-22T03:35:52.605Z,57.40
2018-12-22T03:36:26.756Z,57.10
2018-12-22T03:37:00.959Z,57.40
2018-12-22T03:37:34.906Z,57.00
2018-12-22T03:38:08.787Z,57.00
2018-12-22T03:38:42.788Z,57.10
2018-12-22T03:39:16.748Z,56.90
2018-12-22T03:39:50.538Z,57.00
2018-12-22T03:40:24.407Z,57.10
2018-12-22T03:40:58.375Z,57.70
2018-12-22T03:41:32.009Z,57.10
2018-12-22T03:42:05.953Z,57.00
2018-12-22T03:42:39.868Z,57.20
2018-12-22T03:43:13.869Z,57.60
2018-12-22T03:43:48.088Z,57.00
2018-12-22T03:44:21.827Z,57.00
2018-12-22T03:44:55.549Z,57.20
2018-12-22T03:45:29.325Z,57.30
2018-12-22T03:46:03.139Z,58.10
2018-12-22T03:46:37.102Z,57.90
2018-12-22T03:47:11.229Z,58.40
2018-12-22T03:47:45.346Z,58.60
2018-12-22T03:48:19.129Z,57.10
2018-12-22T03:48:53.074Z,58.00
2018-12-22T03:49:27.264Z,57.30
2018-12-22T03:50:01.360Z,56.80
2018-12-22T03:50:35.259Z,58.20
2018-12-22T03:51:09.102Z,58.30
2018-12-22T03:51:43.163Z,57.80
2018-12-22T03:52:17.132Z,57.00
2018-12-22T03:52:51.053Z,57.90
2018-12-22T03:53:24.827Z,58.10
2018-12-22T03:53:58.791Z,57.40
2018-12-22T03:54:32.807Z,57.70
2018-12-22T03:55:06.763Z,57.80
2018-12-22T03:55:40.673Z,57.60
2018-12-22T03:56:14.836Z,57.60
2018-12-22T03:56:48.755Z,56.60
2018-12-22T03:57:22.483Z,57.20
2018-12-22T03:57:56.424Z,57.50
2018-12-22T03:58:30.300Z,56.70
2018-12-22T03:59:04.168Z,57.50
2018-12-22T03:59:37.894Z,57.80
2018-12-22T04:00:11.985Z,57.40
2018-12-22T04:00:45.558Z,57.50
2018-12-22T04:01:19.496Z,57.60
2018-12-22T04:01:53.495Z,56.90
2018-12-22T04:02:27.880Z,57.20
2018-12-22T04:03:01.716Z,57.20
2018-12-22T04:03:35.527Z,58.50
2018-12-22T04:04:09.500Z,58.00
2018-12-22T04:04:43.284Z,56.70
2018-12-22T04:05:17.384Z,57.20
2018-12-22T04:05:51.482Z,58.00
2018-12-22T04:06:25.235Z,57.40
2018-12-22T04:06:58.744Z,56.80
2018-12-22T04:07:32.635Z,56.60
2018-12-22T04:08:06.725Z,57.50
2018-12-22T04:08:40.766Z,57.20
2018-12-22T04:09:14.676Z,58.70
2018-12-22T04:09:48.391Z,57.80
2018-12-22T04:10:22.166Z,57.30
2018-12-22T04:10:56.118Z,56.80
2018-12-22T04:11:30.327Z,57.70
2018-12-22T04:12:04.185Z,56.70
2018-12-22T04:12:38.387Z,57.00
2018-12-22T04:13:12.160Z,57.30
2018-12-22T04:13:46.376Z,56.80
2018-12-22T04:14:20.285Z,58.00
2018-12-22T04:14:54.126Z,58.40
2018-12-22T04:15:28.097Z,57.50
2018-12-22T04:16:01.708Z,57.00
2018-12-22T04:16:35.907Z,56.90
2018-12-22T04:17:10.088Z,56.60
2018-12-22T04:17:44.107Z,57.20
2018-12-22T04:18:18.175Z,58.00
2018-12-22T04:18:51.996Z,57.70
2018-12-22T04:19:26.075Z,57.40
2018-12-22T04:20:00.016Z,56.70
2018-12-22T04:20:33.965Z,56.40
2018-12-22T04:21:07.746Z,57.50
2018-12-22T04:21:41.405Z,58.50
2018-12-22T04:22:15.017Z,56.40
2018-12-22T04:22:48.935Z,56.80
2018-12-22T04:23:23.016Z,56.30
2018-12-22T04:23:56.956Z,55.90
2018-12-22T04:24:30.754Z,56.10
2018-12-22T04:25:04.735Z,56.20
2018-12-22T04:25:38.504Z,56.70
2018-12-22T04:26:12.643Z,57.20
2018-12-22T04:26:46.855Z,56.50
2018-12-22T04:27:20.866Z,56.20
2018-12-22T04:27:54.779Z,56.40
2018-12-22T04:28:28.856Z,56.30
2018-12-22T04:29:02.707Z,56.40
2018-12-22T04:29:36.837Z,58.00
2018-12-22T04:30:10.804Z,57.70
2018-12-22T04:30:44.557Z,56.90
2018-12-22T04:31:18.530Z,56.30
2018-12-22T04:31:52.449Z,57.30
2018-12-22T04:32:26.580Z,56.20
2018-12-22T04:33:00.573Z,57.20
2018-12-22T04:33:34.738Z,56.70
2018-12-22T04:34:08.418Z,57.70
2018-12-22T04:34:42.575Z,57.20
2018-12-22T04:35:16.448Z,56.30
2018-12-22T04:35:50.336Z,57.20
2018-12-22T04:36:24.279Z,58.80
2018-12-22T04:36:58.259Z,56.30
2018-12-22T04:37:32.401Z,56.70
2018-12-22T04:38:06.320Z,57.20
2018-12-22T04:38:40.121Z,57.50
2018-12-22T04:39:13.911Z,57.10
2018-12-22T04:39:47.930Z,57.40
2018-12-22T04:40:21.960Z,56.80
2018-12-22T04:40:55.923Z,56.20
2018-12-22T04:41:30.150Z,55.70
2018-12-22T04:42:03.759Z,56.20
2018-12-22T04:42:37.532Z,56.90
2018-12-22T04:43:11.500Z,57.40
2018-12-22T04:43:45.432Z,57.80
2018-12-22T04:44:19.417Z,56.90
2018-12-22T04:44:53.328Z,57.50
2018-12-22T04:45:27.100Z,56.40
2018-12-22T04:46:01.220Z,56.90
2018-12-22T04:46:35.228Z,57.10
2018-12-22T04:47:08.977Z,56.20
2018-12-22T04:47:42.653Z,56.40
2018-12-22T04:48:16.887Z,56.60
2018-12-22T04:48:50.998Z,57.10
2018-12-22T04:49:24.863Z,55.60
2018-12-22T04:49:58.748Z,56.80
2018-12-22T04:50:32.787Z,55.60
2018-12-22T04:51:06.479Z,55.80
2018-12-22T04:51:40.515Z,56.00
2018-12-22T04:52:14.488Z,55.90
2018-12-22T04:52:48.279Z,57.60
2018-12-22T04:53:21.817Z,56.90
2018-12-22T04:53:55.580Z,55.90
2018-12-22T04:54:29.419Z,56.60
2018-12-22T04:55:03.143Z,56.80
2018-12-22T04:55:36.810Z,57.50
2018-12-22T04:56:10.779Z,56.00
2018-12-22T04:56:44.570Z,55.90
2018-12-22T04:57:18.621Z,56.90
2018-12-22T04:57:52.569Z,56.10
2018-12-22T04:58:26.678Z,56.80
2018-12-22T04:59:00.598Z,56.80
2018-12-22T04:59:42.809Z,56.00
2018-12-22T05:00:10.138Z,56.70
2018-12-22T05:00:44.002Z,56.70
2018-12-22T05:01:17.933Z,57.50
2018-12-22T05:01:51.626Z,57.40
2018-12-22T05:02:25.445Z,55.90
2018-12-22T05:02:59.514Z,56.00
2018-12-22T05:03:33.672Z,55.60
2018-12-22T05:04:07.733Z,56.50
2018-12-22T05:04:41.495Z,56.10
2018-12-22T05:05:15.165Z,56.10
2018-12-22T05:05:49.426Z,55.40
2018-12-22T05:06:23.477Z,56.40
2018-12-22T05:06:57.585Z,55.80
2018-12-22T05:07:31.347Z,55.30
2018-12-22T05:08:05.171Z,55.10
2018-12-22T05:08:39.032Z,55.80
2018-12-22T05:09:12.714Z,55.30
2018-12-22T05:09:46.630Z,55.50
2018-12-22T05:10:20.640Z,55.60
2018-12-22T05:10:54.616Z,55.80
2018-12-22T05:11:28.667Z,56.60
2018-12-22T05:12:02.764Z,56.10
2018-12-22T05:12:36.585Z,55.70
2018-12-22T05:13:10.358Z,56.20
2018-12-22T05:13:44.275Z,55.00
2018-12-22T05:14:18.136Z,55.70
2018-12-22T05:14:51.997Z,56.00
2018-12-22T05:15:25.908Z,55.50
2018-12-22T05:16:00.070Z,55.00
2018-12-22T05:16:33.929Z,55.80
2018-12-22T05:17:07.597Z,55.80
2018-12-22T05:17:41.386Z,55.00
2018-12-22T05:18:15.184Z,55.10
2018-12-22T05:18:49.076Z,55.20
2018-12-22T05:19:22.987Z,55.50
2018-12-22T05:19:56.928Z,55.60
2018-12-22T05:20:30.670Z,55.20
2018-12-22T05:21:04.438Z,54.70
2018-12-22T05:21:38.476Z,55.40
2018-12-22T05:22:12.765Z,55.00
2018-12-22T05:22:46.636Z,55.40
2018-12-22T05:23:20.705Z,55.20
2018-12-22T05:23:54.686Z,55.90
2018-12-22T05:24:29.077Z,55.30
2018-12-22T05:25:02.633Z,56.50
2018-12-22T05:25:36.760Z,55.70
2018-12-22T05:26:10.482Z,55.00
2018-12-22T05:26:44.393Z,55.90
2018-12-22T05:27:18.184Z,56.20
2018-12-22T05:27:52.364Z,55.40
2018-12-22T05:28:26.504Z,56.50
2018-12-22T05:29:00.279Z,55.40
2018-12-22T05:29:34.075Z,56.00
2018-12-22T05:30:08.077Z,55.60
2018-12-22T05:30:42.072Z,55.30
2018-12-22T05:31:16.004Z,55.10
2018-12-22T05:31:49.934Z,54.60
2018-12-22T05:32:23.915Z,54.70
2018-12-22T05:32:57.743Z,54.30
2018-12-22T05:33:31.655Z,55.30
2018-12-22T05:34:05.356Z,55.30
2018-12-22T05:34:39.494Z,55.20
2018-12-22T05:35:13.664Z,55.20
2018-12-22T05:35:47.678Z,55.60
2018-12-22T05:36:21.748Z,55.70
2018-12-22T05:36:55.228Z,56.00
2018-12-22T05:37:28.977Z,55.40
2018-12-22T05:38:02.890Z,55.90
2018-12-22T05:38:36.453Z,56.20
2018-12-22T05:39:10.192Z,56.10
2018-12-22T05:39:43.576Z,55.90
2018-12-22T05:40:17.453Z,54.80
2018-12-22T05:40:50.885Z,54.10
2018-12-22T05:41:24.672Z,55.70
2018-12-22T05:41:58.682Z,55.40
2018-12-22T05:42:32.491Z,54.70
2018-12-22T05:43:06.027Z,54.60
2018-12-22T05:43:39.713Z,54.90
2018-12-22T05:44:13.663Z,56.30
2018-12-22T05:44:47.883Z,55.40
2018-12-22T05:45:22.115Z,54.90
2018-12-22T05:45:55.880Z,55.00
2018-12-22T05:46:29.716Z,54.60
2018-12-22T05:47:03.734Z,56.00
2018-12-22T05:47:37.803Z,55.10
2018-12-22T05:48:11.575Z,56.10
2018-12-22T05:48:45.560Z,55.30
2018-12-22T05:49:19.546Z,56.30
2018-12-22T05:49:53.610Z,56.20
2018-12-22T05:50:27.337Z,56.00
2018-12-22T05:51:01.128Z,55.30
2018-12-22T05:51:35.051Z,55.20
2018-12-22T05:52:09.216Z,55.50
2018-12-22T05:52:42.822Z,56.30
2018-12-22T05:53:16.809Z,54.90
2018-12-22T05:53:50.622Z,55.50
2018-12-22T05:54:24.179Z,56.20
2018-12-22T05:54:57.960Z,56.00
2018-12-22T05:55:31.718Z,54.90
2018-12-22T05:56:05.793Z,56.10
2018-12-22T05:56:39.619Z,55.20
2018-12-22T05:57:13.588Z,54.90
2018-12-22T05:57:47.329Z,55.00
2018-12-22T05:58:21.553Z,54.90
2018-12-22T05:58:55.587Z,55.40
2018-12-22T05:59:29.162Z,54.70
2018-12-22T06:00:02.834Z,55.20
2018-12-22T06:00:36.842Z,54.70
2018-12-22T06:01:10.703Z,55.30
2018-12-22T06:01:44.587Z,55.90
2018-12-22T06:02:18.501Z,55.90
2018-12-22T06:02:52.393Z,55.30
2018-12-22T06:03:26.325Z,55.20
2018-12-22T06:04:00.023Z,56.10
2018-12-22T06:04:34.142Z,54.50
2018-12-22T06:05:08.463Z,55.30
2018-12-22T06:05:42.393Z,56.30
2018-12-22T06:06:16.273Z,55.30
2018-12-22T06:06:50.092Z,55.90
2018-12-22T06:07:23.583Z,55.90
2018-12-22T06:07:57.383Z,55.60
2018-12-22T06:08:31.207Z,54.10
2018-12-22T06:09:05.272Z,54.40
2018-12-22T06:09:39.383Z,55.30
2018-12-22T06:10:13.501Z,56.60
2018-12-22T06:10:47.374Z,55.50
2018-12-22T06:11:21.165Z,55.20
2018-12-22T06:11:55.223Z,56.30
2018-12-22T06:12:28.981Z,56.00
2018-12-22T06:13:02.668Z,55.40
2018-12-22T06:13:36.438Z,55.50
2018-12-22T06:14:10.497Z,55.40
2018-12-22T06:14:44.417Z,55.70
2018-12-22T06:15:18.394Z,55.00
2018-12-22T06:15:52.389Z,54.40
2018-12-22T06:16:26.068Z,54.40
2018-12-22T06:16:59.863Z,54.90
2018-12-22T06:17:33.763Z,56.20
2018-12-22T06:18:07.686Z,55.50
2018-12-22T06:18:41.569Z,56.80
2018-12-22T06:19:15.487Z,54.70
2018-12-22T06:19:49.273Z,55.50
2018-12-22T06:20:22.700Z,55.30
2018-12-22T06:20:56.305Z,55.90
2018-12-22T06:21:30.144Z,54.40
2018-12-22T06:22:03.925Z,54.70
2018-12-22T06:22:37.662Z,54.60
2018-12-22T06:23:11.930Z,55.50
2018-12-22T06:23:45.746Z,55.30
2018-12-22T06:24:19.674Z,54.50
2018-12-22T06:24:53.569Z,55.70
2018-12-22T06:25:27.946Z,56.00
2018-12-22T06:26:01.575Z,54.40
2018-12-22T06:26:35.723Z,54.50
2018-12-22T06:27:09.513Z,54.50
2018-12-22T06:27:43.670Z,54.90
2018-12-22T06:28:17.737Z,55.60
2018-12-22T06:28:51.634Z,55.20
2018-12-22T06:29:25.476Z,55.30
2018-12-22T06:29:59.844Z,54.80
2018-12-22T06:30:33.921Z,54.80
2018-12-22T06:31:07.940Z,55.00
2018-12-22T06:31:42.161Z,54.10
2018-12-22T06:32:16.011Z,55.00
2018-12-22T06:32:49.875Z,56.10
2018-12-22T06:33:23.774Z,54.20
2018-12-22T06:33:57.469Z,55.40
2018-12-22T06:34:31.504Z,55.70
2018-12-22T06:35:05.198Z,55.60
2018-12-22T06:35:39.163Z,55.70
2018-12-22T06:36:13.257Z,56.40
2018-12-22T06:36:47.190Z,54.90
2018-12-22T06:37:21.278Z,54.00
2018-12-22T06:37:56.097Z,55.00
2018-12-22T06:38:29.758Z,54.70
2018-12-22T06:39:03.661Z,54.60
2018-12-22T06:39:37.396Z,55.30
2018-12-22T06:40:11.347Z,54.20
2018-12-22T06:40:45.229Z,56.20
2018-12-22T06:41:19.196Z,56.20
2018-12-22T06:41:53.184Z,54.50
2018-12-22T06:42:26.916Z,55.80
2018-12-22T06:43:00.944Z,54.50
2018-12-22T06:43:34.494Z,54.30
2018-12-22T06:44:08.724Z,55.00
2018-12-22T06:44:42.684Z,54.40
2018-12-22T06:45:16.105Z,55.00
2018-12-22T06:45:50.192Z,54.50
2018-12-22T06:46:24.033Z,54.00
2018-12-22T06:46:57.876Z,54.80
2018-12-22T06:47:31.802Z,55.80
2018-12-22T06:48:05.660Z,54.60
2018-12-22T06:48:39.424Z,54.80
2018-12-22T06:49:13.310Z,54.60
2018-12-22T06:49:47.255Z,54.50
2018-12-22T06:50:21.239Z,55.00
2018-12-22T06:50:55.160Z,53.90
2018-12-22T06:51:29.048Z,53.90
2018-12-22T06:52:03.081Z,55.10
2018-12-22T06:52:37.404Z,53.90
2018-12-22T06:53:11.626Z,54.30
2018-12-22T06:53:45.601Z,54.80
2018-12-22T06:54:19.650Z,54.60
2018-12-22T06:54:53.593Z,54.50
2018-12-22T06:55:27.740Z,54.10
2018-12-22T06:56:01.858Z,55.20
2018-12-22T06:56:35.383Z,53.80
2018-12-22T06:57:09.326Z,53.40
2018-12-22T06:57:43.079Z,54.50
2018-12-22T06:58:17.127Z,54.40
2018-12-22T06:58:50.989Z,54.40
2018-12-22T06:59:24.640Z,54.70
2018-12-22T06:59:58.499Z,54.80
2018-12-22T07:00:32.452Z,54.60
2018-12-22T07:01:06.292Z,53.70
2018-12-22T07:01:40.162Z,54.30
2018-12-22T07:02:14.086Z,53.80
2018-12-22T07:02:47.665Z,54.40
2018-12-22T07:03:21.695Z,54.60
2018-12-22T07:03:55.697Z,53.80
2018-12-22T07:04:29.700Z,53.70
2018-12-22T07:05:03.867Z,53.60
2018-12-22T07:05:37.512Z,54.30
2018-12-22T07:06:11.763Z,54.50
2018-12-22T07:06:45.594Z,53.40
2018-12-22T07:07:19.485Z,53.50
2018-12-22T07:07:53.467Z,54.50
2018-12-22T07:08:27.317Z,55.30
2018-12-22T07:09:01.247Z,54.10
2018-12-22T07:09:34.875Z,53.40
2018-12-22T07:10:08.595Z,54.20
2018-12-22T07:10:42.831Z,54.40
2018-12-22T07:11:16.800Z,53.00
2018-12-22T07:11:50.195Z,52.80
2018-12-22T07:12:24.252Z,53.20
2018-12-22T07:12:57.877Z,53.60
2018-12-22T07:13:31.747Z,52.90
2018-12-22T07:14:05.405Z,54.40
2018-12-22T07:14:39.561Z,54.00
2018-12-22T07:15:13.209Z,54.30
2018-12-22T07:15:47.291Z,54.50
2018-12-22T07:16:21.280Z,53.60
2018-12-22T07:16:55.135Z,53.60